createdAt,value
2019-01-22T00:01:28.906Z,69.55
2019-01-22T00:03:55.106Z,75.50
2019-01-22T00:06:25.281Z,68.72
2019-01-22T00:08:57.241Z,73.90
2019-01-22T00:11:26.435Z,63.20
2019-01-22T00:13:52.521Z,80.35
2019-01-22T00:16:25.919Z,73.92
2019-01-22T00:18:59.765Z,74.97
2019-01-22T00:21:25.811Z,78.55
2019-01-22T00:23:53.723Z,68.57
2019-01-22T00:26:19.967Z,76.05
2019-01-22T00:28:49.183Z,78.25
2019-01-22T00:31:29.943Z,73.35
2019-01-22T00:33:56.116Z,79.03
2019-01-22T00:36:25.257Z,73.52
2019-01-22T00:38:53.250Z,70.12
2019-01-22T00:41:22.431Z,79.70
2019-01-22T00:43:50.817Z,72.85
2019-01-22T00:46:19.528Z,75.75
2019-01-22T00:48:46.663Z,78.55
2019-01-22T00:51:13.903Z,82.35
2019-01-22T00:53:39.962Z,71.42
2019-01-22T00:56:06.129Z,70.42
2019-01-22T00:58:32.364Z,66.20
2019-01-22T01:00:58.458Z,71.53
2019-01-22T01:03:24.558Z,80.75
2019-01-22T01:05:52.641Z,73.25
2019-01-22T01:08:19.026Z,68.85
2019-01-22T01:10:45.219Z,71.92
2019-01-22T01:13:13.331Z,77.67
2019-01-22T01:15:50.984Z,78.50
2019-01-22T01:18:22.977Z,73.07
2019-01-22T01:20:49.212Z,78.95
2019-01-22T01:23:16.861Z,72.82
2019-01-22T01:25:49.387Z,69.90
2019-01-22T01:28:17.531Z,66.20
2019-01-22T01:30:46.381Z,70.65
2019-01-22T01:33:13.715Z,66.65
2019-01-22T01:35:41.982Z,67.22
2019-01-22T01:38:14.967Z,64.22
2019-01-22T01:40:41.443Z,69.17
2019-01-22T01:43:09.032Z,60.12
2019-01-22T01:45:38.941Z,65.42
2019-01-22T01:48:12.864Z,67.92
2019-01-22T01:50:42.740Z,65.37
2019-01-22T01:53:08.920Z,66.37
2019-01-22T01:55:37.499Z,63.20
2019-01-22T01:58:03.686Z,64.35
2019-01-22T02:00:35.710Z,62.90
2019-01-22T02:03:01.767Z,64.30
2019-01-22T02:05:27.935Z,65.92
2019-01-22T02:07:54.979Z,65.30
2019-01-22T02:10:21.416Z,66.82
2019-01-22T02:12:54.598Z,65.75
2019-01-22T02:15:24.549Z,71.67
2019-01-22T02:17:54.435Z,67.60
2019-01-22T02:20:35.881Z,73.95
2019-01-22T02:23:14.602Z,62.78
2019-01-22T02:25:53.230Z,63.25
2019-01-22T02:28:35.255Z,66.85
2019-01-22T02:31:08.138Z,56.70
2019-01-22T02:33:46.867Z,62.35
2019-01-22T02:36:21.061Z,59.95
2019-01-22T02:39:06.086Z,57.08
2019-01-22T02:41:35.960Z,61.23
2019-01-22T02:44:07.101Z,55.52
2019-01-22T02:46:46.148Z,61.98
2019-01-22T02:49:41.937Z,54.67
2019-01-22T02:52:17.987Z,56.88
2019-01-22T02:54:51.146Z,59.93
2019-01-22T02:57:48.681Z,49.20
2019-01-22T03:00:34.638Z,51.58
2019-01-22T03:03:22.715Z,60.20
2019-01-22T03:05:52.713Z,50.95
2019-01-22T03:08:26.411Z,55.20
2019-01-22T03:11:09.772Z,54.73
2019-01-22T03:13:53.010Z,49.48
2019-01-22T03:16:29.041Z,68.92
2019-01-22T03:18:58.959Z,61.25
2019-01-22T03:21:34.896Z,53.92
2019-01-22T03:24:28.564Z,61.08
2019-01-22T03:27:04.187Z,64.60
2019-01-22T03:29:40.001Z,61.48
2019-01-22T03:32:25.286Z,56.50
2019-01-22T03:35:15.174Z,61.15
2019-01-22T03:38:04.222Z,56.68
2019-01-22T03:40:46.192Z,60.05
2019-01-22T03:43:21.943Z,54.65
2019-01-22T03:46:02.084Z,61.08
2019-01-22T03:48:43.963Z,55.92
2019-01-22T03:51:24.250Z,56.92
2019-01-22T03:53:57.260Z,57.88
2019-01-22T03:56:27.148Z,55.60
2019-01-22T03:58:53.282Z,55.50
2019-01-22T04:01:21.913Z,63.65
2019-01-22T04:04:09.852Z,58.35
2019-01-22T04:06:41.018Z,54.60
2019-01-22T04:09:13.821Z,53.65
2019-01-22T04:11:42.360Z,58.52
2019-01-22T04:14:15.413Z,60.52
2019-01-22T04:16:41.477Z,65.52
2019-01-22T04:19:09.099Z,59.77
2019-01-22T04:21:41.349Z,59.20
2019-01-22T04:24:29.738Z,61.42
2019-01-22T04:27:25.116Z,57.80
2019-01-22T04:30:11.640Z,61.58
2019-01-22T04:32:55.897Z,66.55
2019-01-22T04:35:59.463Z,64.70
2019-01-22T04:38:30.796Z,59.05
2019-01-22T04:41:01.727Z,62.23
2019-01-22T04:43:50.271Z,60.63
2019-01-22T04:46:31.266Z,59.88
2019-01-22T04:49:12.417Z,65.32
2019-01-22T04:51:44.705Z,61.37
2019-01-22T04:54:36.535Z,63.83
2019-01-22T04:57:06.457Z,54.40
2019-01-22T04:59:39.792Z,64.77
2019-01-22T05:02:25.135Z,58.42
2019-01-22T05:04:55.102Z,64.03
2019-01-22T05:07:26.073Z,58.33
2019-01-22T05:12:51.194Z,57.55
2019-01-22T05:15:32.981Z,74.05
2019-01-22T05:18:12.551Z,65.22
2019-01-22T05:20:54.229Z,58.40
2019-01-22T05:23:42.116Z,66.22
2019-01-22T05:26:46.635Z,55.52
2019-01-22T05:29:17.482Z,64.80
2019-01-22T05:31:53.498Z,61.85
2019-01-22T05:34:40.809Z,58.75
2019-01-22T05:37:13.475Z,56.90
2019-01-22T05:39:55.834Z,60.58
2019-01-22T05:42:45.447Z,69.35
2019-01-22T05:45:33.151Z,55.78
2019-01-22T05:48:20.942Z,58.78
2019-01-22T05:50:53.693Z,62.20
2019-01-22T05:53:36.040Z,59.63
2019-01-22T05:56:17.860Z,76.80
2019-01-22T05:59:22.050Z,59.55
2019-01-22T06:01:53.163Z,60.12
2019-01-22T06:04:57.506Z,63.08
2019-01-22T06:07:44.170Z,61.45
2019-01-22T06:10:31.023Z,57.08
2019-01-22T06:13:17.877Z,67.50
2019-01-22T06:16:00.076Z,61.80
2019-01-22T06:18:53.093Z,60.90
2019-01-22T06:21:26.804Z,69.17
2019-01-22T06:24:15.957Z,71.82
2019-01-22T06:26:56.112Z,70.95
2019-01-22T06:29:26.346Z,64.17
2019-01-22T06:31:59.025Z,60.98
2019-01-22T06:34:29.924Z,71.70
2019-01-22T06:37:06.784Z,66.70
2019-01-22T06:39:40.468Z,74.58
2019-01-22T06:42:14.804Z,63.33
2019-01-22T06:45:05.722Z,75.92
2019-01-22T06:47:44.446Z,79.27
2019-01-22T06:50:38.899Z,75.50
2019-01-22T06:53:17.808Z,82.67
2019-01-22T06:56:17.633Z,80.60
2019-01-22T06:58:50.510Z,73.33
2019-01-22T07:01:38.234Z,79.05
2019-01-22T07:04:10.101Z,77.05
2019-01-22T07:06:57.875Z,68.37
2019-01-22T07:09:41.085Z,69.80
2019-01-22T07:12:27.827Z,77.27
2019-01-22T07:15:36.206Z,83.50
2019-01-22T07:18:24.421Z,75.83
2019-01-22T07:21:07.966Z,75.85
2019-01-22T07:24:00.523Z,78.22
2019-01-22T07:26:46.706Z,79.12
2019-01-22T07:29:36.741Z,84.60
2019-01-22T07:32:07.651Z,73.75
2019-01-22T07:34:51.498Z,86.42
2019-01-22T07:37:22.201Z,80.45
2019-01-22T07:39:55.085Z,85.85
2019-01-22T07:42:43.349Z,103.55
2019-01-22T07:45:19.237Z,122.30
2019-01-22T07:47:53.104Z,82.55
2019-01-22T07:50:35.940Z,122.67
2019-01-22T07:53:12.912Z,101.50
2019-01-22T07:55:57.888Z,89.97
2019-01-22T07:58:40.076Z,98.60
2019-01-22T08:01:18.713Z,93.40
2019-01-22T08:04:26.320Z,90.97
2019-01-22T08:06:58.250Z,84.00
2019-01-22T08:10:03.197Z,88.15
2019-01-22T08:13:07.299Z,98.05
2019-01-22T08:15:52.587Z,93.07
2019-01-22T08:18:41.775Z,95.38
2019-01-22T08:21:26.004Z,123.80
2019-01-22T08:24:12.696Z,163.55
2019-01-22T08:27:08.683Z,109.63
2019-01-22T08:29:46.411Z,93.47
2019-01-22T08:32:39.191Z,92.78
2019-01-22T08:35:15.130Z,106.83
2019-01-22T08:38:05.155Z,97.40
2019-01-22T08:41:10.154Z,99.60
2019-01-22T08:44:02.275Z,102.72
2019-01-22T08:46:40.959Z,103.35
2019-01-22T08:49:43.069Z,104.55
2019-01-22T08:52:58.193Z,126.00
2019-01-22T08:55:43.947Z,106.58
2019-01-22T08:58:29.218Z,110.28
2019-01-22T09:01:45.300Z,115.35
2019-01-22T09:04:46.359Z,115.62
2019-01-22T09:07:38.152Z,98.92
2019-01-22T09:10:32.049Z,113.60
2019-01-22T09:13:17.218Z,97.65
2019-01-22T09:16:02.616Z,109.27
2019-01-22T09:18:51.040Z,112.50
2019-01-22T09:21:23.911Z,96.65
2019-01-22T09:24:04.158Z,109.83
2019-01-22T09:26:46.379Z,103.00
2019-01-22T09:29:51.203Z,102.02
2019-01-22T09:32:39.756Z,101.97
2019-01-22T09:35:40.058Z,93.20
2019-01-22T09:38:13.009Z,109.97
2019-01-22T09:40:46.065Z,97.60
2019-01-22T09:43:17.745Z,103.05
2019-01-22T09:45:47.959Z,87.92
2019-01-22T09:48:16.233Z,105.52
2019-01-22T09:50:42.274Z,103.32
2019-01-22T09:53:18.488Z,101.00
2019-01-22T09:55:44.724Z,93.85
2019-01-22T09:58:10.899Z,94.92
2019-01-22T10:00:43.491Z,82.37
2019-01-22T10:03:11.656Z,88.82
2019-01-22T10:05:42.027Z,101.72
2019-01-22T10:08:09.190Z,87.80
2019-01-22T10:10:43.699Z,89.15
2019-01-22T10:13:18.875Z,97.97
2019-01-22T10:15:48.289Z,94.62
2019-01-22T10:18:22.426Z,86.35
2019-01-22T10:20:57.573Z,113.32
2019-01-22T10:23:28.626Z,103.85
2019-01-22T10:26:00.686Z,104.50
2019-01-22T10:28:27.785Z,109.87
2019-01-22T10:30:56.896Z,91.97
2019-01-22T10:33:31.861Z,110.22
2019-01-22T10:35:59.063Z,100.27
2019-01-22T10:38:27.166Z,100.22
2019-01-22T10:40:53.298Z,101.35
2019-01-22T10:43:41.586Z,96.20
2019-01-22T10:46:07.768Z,97.22
2019-01-22T10:48:34.987Z,102.10
2019-01-22T10:51:08.324Z,105.87
2019-01-22T10:53:34.611Z,95.67
2019-01-22T10:56:07.089Z,99.90
2019-01-22T10:58:39.258Z,101.27
2019-01-22T11:01:12.420Z,93.30
2019-01-22T11:03:41.455Z,93.72
2019-01-22T11:06:18.978Z,115.42
2019-01-22T11:08:50.203Z,92.72
2019-01-22T11:11:19.388Z,97.08
2019-01-22T11:13:49.301Z,108.60
2019-01-22T11:16:17.822Z,106.00
2019-01-22T11:19:09.723Z,96.85
2019-01-22T11:21:35.779Z,100.45
2019-01-22T11:24:19.211Z,94.30
2019-01-22T11:26:52.440Z,89.85
2019-01-22T11:29:19.846Z,100.55
2019-01-22T11:32:08.703Z,98.20
2019-01-22T11:34:34.970Z,107.40
2019-01-22T11:37:08.998Z,99.22
2019-01-22T11:39:43.334Z,92.67
2019-01-22T11:42:13.038Z,85.17
2019-01-22T11:44:42.140Z,92.15
2019-01-22T11:47:16.756Z,82.35
2019-01-22T11:49:55.310Z,87.82
2019-01-22T11:52:32.872Z,73.55
2019-01-22T11:55:06.514Z,74.85
2019-01-22T11:57:40.830Z,64.75
2019-01-22T12:00:11.880Z,72.00
2019-01-22T12:02:38.509Z,73.15
2019-01-22T12:05:07.999Z,68.90
2019-01-22T12:07:38.626Z,76.62
2019-01-22T12:10:10.247Z,83.07
2019-01-22T12:12:39.214Z,77.62
2019-01-22T12:15:10.708Z,77.60
2019-01-22T12:17:46.028Z,72.65
2019-01-22T12:20:18.736Z,70.90
2019-01-22T12:22:45.937Z,86.60
2019-01-22T12:25:25.516Z,73.02
2019-01-22T12:28:02.535Z,64.22
2019-01-22T12:30:31.438Z,65.92
2019-01-22T12:33:07.224Z,65.15
2019-01-22T12:35:33.319Z,67.50
2019-01-22T12:38:27.095Z,68.42
2019-01-22T12:41:06.846Z,65.75
2019-01-22T12:43:35.155Z,68.70
2019-01-22T12:46:03.092Z,62.75
2019-01-22T12:48:30.388Z,73.40
2019-01-22T12:51:01.585Z,81.65
2019-01-22T12:53:28.808Z,68.55
2019-01-22T12:56:04.254Z,62.48
2019-01-22T12:58:40.759Z,59.33
2019-01-22T13:01:10.992Z,70.15
2019-01-22T13:03:52.489Z,63.10
2019-01-22T13:06:19.457Z,65.95
2019-01-22T13:08:56.406Z,66.47
2019-01-22T13:11:22.532Z,65.32
2019-01-22T13:13:48.742Z,64.05
2019-01-22T13:16:15.942Z,59.48
2019-01-22T13:18:42.117Z,60.70
2019-01-22T13:21:08.675Z,60.65
2019-01-22T13:23:34.822Z,64.72
2019-01-22T13:26:11.724Z,65.32
2019-01-22T13:28:38.160Z,60.00
2019-01-22T13:31:23.547Z,61.23
2019-01-22T13:33:57.816Z,57.13
2019-01-22T13:36:24.924Z,57.20
2019-01-22T13:39:01.063Z,56.80
2019-01-22T13:41:43.763Z,52.45
2019-01-22T13:44:13.136Z,55.63
2019-01-22T13:46:47.623Z,49.27
2019-01-22T13:49:20.257Z,49.63
2019-01-22T13:51:56.717Z,47.25
2019-01-22T13:54:28.112Z,46.65
2019-01-22T13:57:02.221Z,50.45
2019-01-22T13:59:29.308Z,45.65
2019-01-22T14:01:58.182Z,48.80
2019-01-22T14:04:24.343Z,44.03
2019-01-22T14:06:51.472Z,53.63
2019-01-22T14:09:18.590Z,60.65
2019-01-22T14:11:47.707Z,51.45
2019-01-22T14:14:14.870Z,46.15
2019-01-22T14:16:40.994Z,48.63
2019-01-22T14:19:07.144Z,45.25
2019-01-22T14:21:33.308Z,45.30
2019-01-22T14:24:03.602Z,43.05
2019-01-22T14:26:31.636Z,39.90
2019-01-22T14:28:58.577Z,45.35
2019-01-22T14:31:24.640Z,45.28
2019-01-22T14:34:02.565Z,43.02
2019-01-22T14:36:28.731Z,50.12
2019-01-22T14:39:00.662Z,37.17
2019-01-22T14:41:28.629Z,44.18
2019-01-22T14:44:01.270Z,40.05
2019-01-22T14:46:33.262Z,41.85
2019-01-22T14:49:00.277Z,36.30
2019-01-22T14:51:35.903Z,40.83
2019-01-22T14:54:13.067Z,44.83
2019-01-22T14:56:51.340Z,39.35
2019-01-22T14:59:17.585Z,44.93
2019-01-22T15:01:45.700Z,41.20
2019-01-22T15:04:21.760Z,35.30
2019-01-22T15:06:47.909Z,40.52
2019-01-22T15:09:15.922Z,34.80
2019-01-22T15:11:43.947Z,43.60
2019-01-22T15:14:10.148Z,39.50
2019-01-22T15:16:40.165Z,34.50
2019-01-22T15:19:07.319Z,33.63
2019-01-22T15:21:41.191Z,33.73
2019-01-22T15:24:23.429Z,36.00
2019-01-22T15:26:51.457Z,33.85
2019-01-22T15:29:21.696Z,32.63
2019-01-22T15:31:49.764Z,32.78
2019-01-22T15:34:15.872Z,31.87
2019-01-22T15:36:43.073Z,30.20
2019-01-22T15:39:10.385Z,31.85
2019-01-22T15:41:40.510Z,32.73
2019-01-22T15:44:06.811Z,27.58
2019-01-22T15:46:38.880Z,32.00
2019-01-22T15:49:10.051Z,36.55
2019-01-22T15:51:45.127Z,32.03
2019-01-22T15:54:20.249Z,30.50
2019-01-22T15:56:56.643Z,39.78
2019-01-22T15:59:24.889Z,33.10
2019-01-22T16:01:57.884Z,27.95
2019-01-22T16:04:31.573Z,30.27
2019-01-22T16:07:08.661Z,32.70
2019-01-22T16:09:48.081Z,30.92
2019-01-22T16:12:27.871Z,29.92
2019-01-22T16:15:11.895Z,33.23
2019-01-22T16:17:43.540Z,32.50
2019-01-22T16:20:18.608Z,33.08
2019-01-22T16:22:47.269Z,36.20
2019-01-22T16:25:25.867Z,32.80
2019-01-22T16:28:06.271Z,30.65
2019-01-22T16:30:48.833Z,36.68
2019-01-22T16:33:18.960Z,35.30
2019-01-22T16:35:54.835Z,29.77
2019-01-22T16:38:24.964Z,35.20
2019-01-22T16:40:54.156Z,41.13
2019-01-22T16:43:26.380Z,31.77
2019-01-22T16:46:06.558Z,34.08
2019-01-22T16:48:36.785Z,36.35
2019-01-22T16:51:09.676Z,33.88
2019-01-22T16:53:44.140Z,36.58
2019-01-22T16:56:12.270Z,41.15
2019-01-22T16:58:44.641Z,34.03
2019-01-22T17:01:12.623Z,36.55
2019-01-22T17:03:41.921Z,36.63
2019-01-22T17:06:09.500Z,33.78
2019-01-22T17:08:37.774Z,41.88
2019-01-22T17:11:05.006Z,39.75
2019-01-22T17:13:38.314Z,34.45
2019-01-22T17:16:10.049Z,37.50
2019-01-22T17:18:36.260Z,37.38
2019-01-22T17:21:04.319Z,36.75
2019-01-22T17:23:34.469Z,38.88
2019-01-22T17:26:00.569Z,35.33
2019-01-22T17:28:33.040Z,37.30
2019-01-22T17:31:09.130Z,40.95
2019-01-22T17:33:37.226Z,42.23
2019-01-22T17:36:03.444Z,38.40
2019-01-22T17:38:37.743Z,44.33
2019-01-22T17:41:04.816Z,39.70
2019-01-22T17:43:31.328Z,37.03
2019-01-22T17:45:59.042Z,40.15
2019-01-22T17:48:29.114Z,39.58
2019-01-22T17:50:56.173Z,118.82
2019-01-22T17:53:28.841Z,83.90
2019-01-22T17:56:00.123Z,50.90
2019-01-22T17:58:32.581Z,91.80
2019-01-22T18:00:58.714Z,71.20
2019-01-22T18:03:31.159Z,37.28
2019-01-22T18:05:58.226Z,41.08
2019-01-22T18:08:32.881Z,36.95
2019-01-22T18:11:00.004Z,40.30
2019-01-22T18:13:34.938Z,43.13
2019-01-22T18:16:01.159Z,41.48
2019-01-22T18:18:27.190Z,39.40
2019-01-22T18:21:04.448Z,43.30
2019-01-22T18:23:36.653Z,44.38
2019-01-22T18:26:06.869Z,37.93
2019-01-22T18:28:32.920Z,43.85
2019-01-22T18:31:08.434Z,38.30
2019-01-22T18:33:34.540Z,38.58
2019-01-22T18:36:10.832Z,39.53
2019-01-22T18:38:36.929Z,41.60
2019-01-22T18:41:05.132Z,42.85
2019-01-22T18:43:37.849Z,43.98
2019-01-22T18:46:04.007Z,43.58
2019-01-22T18:48:31.266Z,39.98
2019-01-22T18:50:57.910Z,41.08
2019-01-22T18:53:31.440Z,52.17
2019-01-22T18:55:58.664Z,41.50
2019-01-22T18:58:32.183Z,44.58
2019-01-22T19:00:59.320Z,38.53
2019-01-22T19:03:25.491Z,41.95
2019-01-22T19:05:56.699Z,38.13
2019-01-22T19:08:25.237Z,46.00
2019-01-22T19:10:59.349Z,42.43
2019-01-22T19:13:38.562Z,44.73
2019-01-22T19:16:10.038Z,37.05
2019-01-22T19:18:36.210Z,43.65
2019-01-22T19:21:11.157Z,45.70
2019-01-22T19:23:37.296Z,47.35
2019-01-22T19:26:10.213Z,48.02
2019-01-22T19:28:36.267Z,49.98
2019-01-22T19:31:06.983Z,49.55
2019-01-22T19:33:40.192Z,45.08
2019-01-22T19:36:15.495Z,54.00
2019-01-22T19:38:46.519Z,53.10
2019-01-22T19:41:17.145Z,53.98
2019-01-22T19:43:54.455Z,50.67
2019-01-22T19:46:31.855Z,52.13
2019-01-22T19:49:14.447Z,49.88
2019-01-22T19:51:40.706Z,58.63
2019-01-22T19:54:08.534Z,64.58
2019-01-22T19:56:47.416Z,68.02
2019-01-22T19:59:18.469Z,60.75
2019-01-22T20:01:46.661Z,46.60
2019-01-22T20:04:18.802Z,59.98
2019-01-22T20:06:45.008Z,62.17
2019-01-22T20:09:11.987Z,53.55
2019-01-22T20:11:38.468Z,54.23
2019-01-22T20:14:08.625Z,49.93
2019-01-22T20:16:34.767Z,59.45
2019-01-22T20:19:02.960Z,47.48
2019-01-22T20:21:32.430Z,55.03
2019-01-22T20:24:06.896Z,49.40
2019-01-22T20:26:38.120Z,49.25
2019-01-22T20:29:07.300Z,55.45
2019-01-22T20:31:35.889Z,54.33
2019-01-22T20:34:07.850Z,51.95
2019-01-22T20:36:34.025Z,56.33
2019-01-22T20:39:09.213Z,61.13
2019-01-22T20:41:40.358Z,50.60
2019-01-22T20:44:09.670Z,49.55
2019-01-22T20:46:38.840Z,50.40
2019-01-22T20:49:06.284Z,48.15
2019-01-22T20:51:39.298Z,54.80
2019-01-22T20:54:14.317Z,57.50
2019-01-22T20:56:54.642Z,57.65
2019-01-22T20:59:20.763Z,49.27
2019-01-22T21:01:47.966Z,55.43
2019-01-22T21:04:16.133Z,46.45
2019-01-22T21:06:48.289Z,48.00
2019-01-22T21:09:16.558Z,52.17
2019-01-22T21:11:42.653Z,43.50
2019-01-22T21:14:08.911Z,48.92
2019-01-22T21:16:36.127Z,114.90
2019-01-22T21:19:04.336Z,59.27
2019-01-22T21:21:32.858Z,65.78
2019-01-22T21:24:01.704Z,73.12
2019-01-22T21:26:29.780Z,52.62
2019-01-22T21:28:57.221Z,50.25
2019-01-22T21:31:34.283Z,51.18
2019-01-22T21:34:04.629Z,51.13
2019-01-22T21:36:41.165Z,49.73
2019-01-22T21:39:07.265Z,49.93
2019-01-22T21:41:33.994Z,48.65
2019-01-22T21:44:03.358Z,48.85
2019-01-22T21:46:34.457Z,56.33
2019-01-22T21:49:00.522Z,47.27
2019-01-22T21:51:51.022Z,52.40
2019-01-22T21:54:17.164Z,58.70
2019-01-22T21:56:47.440Z,54.98
2019-01-22T21:59:23.248Z,52.48
2019-01-22T22:01:51.582Z,55.30
2019-01-22T22:04:19.777Z,52.27
2019-01-22T22:06:47.984Z,50.88
2019-01-22T22:09:16.907Z,49.73
2019-01-22T22:12:12.104Z,54.05
2019-01-22T22:14:38.189Z,52.20
2019-01-22T22:17:10.096Z,61.13
2019-01-22T22:19:43.225Z,55.20
2019-01-22T22:22:10.623Z,61.13
2019-01-22T22:24:36.738Z,56.28
2019-01-22T22:27:04.961Z,59.63
2019-01-22T22:29:40.082Z,48.65
2019-01-22T22:32:22.265Z,54.10
2019-01-22T22:34:54.155Z,53.42
2019-01-22T22:37:32.531Z,52.58
2019-01-22T22:39:58.598Z,58.87
2019-01-22T22:42:31.420Z,57.85
2019-01-22T22:45:01.524Z,57.88
2019-01-22T22:47:27.829Z,49.23
2019-01-22T22:49:53.908Z,50.95
2019-01-22T22:52:21.098Z,58.98
2019-01-22T22:54:49.246Z,55.50
2019-01-22T22:57:19.610Z,53.73
2019-01-22T22:59:52.467Z,54.93
2019-01-22T23:02:19.690Z,51.68
2019-01-22T23:04:56.860Z,50.48
2019-01-22T23:07:22.924Z,59.48
2019-01-22T23:09:58.279Z,55.15
2019-01-22T23:12:24.370Z,61.83
2019-01-22T23:14:51.529Z,50.43
2019-01-22T23:17:20.678Z,60.92
2019-01-22T23:20:09.639Z,55.78
2019-01-22T23:22:37.860Z,56.53
2019-01-22T23:25:09.011Z,48.58
2019-01-22T23:27:36.147Z,56.77
2019-01-22T23:30:14.970Z,49.90
2019-01-22T23:32:41.238Z,51.77
2019-01-22T23:35:13.796Z,57.35
2019-01-22T23:37:39.931Z,44.75
2019-01-22T23:40:10.881Z,54.53
2019-01-22T23:42:45.732Z,45.88
2019-01-22T23:45:13.160Z,50.12
2019-01-22T23:47:46.910Z,47.43
2019-01-22T23:50:23.251Z,53.28
2019-01-22T23:52:49.321Z,45.25
2019-01-22T23:55:16.484Z,48.30
2019-01-22T23:57:43.569Z,45.67
